Time;durP1;ratioP1;P1;durP2;ratioP2;P2;SDS_P1;SDS_P2;PMS_P1;PMS_P2;Temp;Humidity;BMP_temperature;BMP_pressure;BME280_temperature;BME280_humidity;BME280_pressure;Samples;Min_cycle;Max_cycle;Signal;HPM_P1;HPM_P2
2023/01/30 00:01:43;;;;;;;2.13;1.48;;;17.90;36.80;;;;;;5067001;28;20435;-48
2023/01/30 00:04:13;;;;;;;0.95;0.47;;;17.90;36.80;;;;;;5066782;28;20047;-47
2023/01/30 00:06:40;;;;;;;0.75;0.60;;;17.90;36.80;;;;;;5065122;28;20123;-46
2023/01/30 00:09:07;;;;;;;2.25;0.98;;;17.90;36.80;;;;;;5066097;28;20536;-47
2023/01/30 00:11:35;;;;;;;1.42;0.40;;;17.90;36.90;;;;;;5066873;28;20076;-49
2023/01/30 00:14:02;;;;;;;3.33;0.20;;;17.80;36.90;;;;;;5059258;28;20524;-47
2023/01/30 00:16:32;;;;;;;1.23;0.52;;;17.80;36.90;;;;;;5046918;28;20045;-49
2023/01/30 00:19:00;;;;;;;1.23;0.95;;;17.90;37.00;;;;;;5046472;28;20133;-50
2023/01/30 00:21:29;;;;;;;0.73;0.65;;;17.80;37.00;;;;;;5056530;28;20049;-48
2023/01/30 00:23:56;;;;;;;2.05;0.55;;;17.80;37.00;;;;;;5066558;28;20045;-46
2023/01/30 00:26:23;;;;;;;1.25;1.10;;;17.80;37.10;;;;;;5066235;28;20513;-49
2023/01/30 00:28:50;;;;;;;0.65;0.65;;;17.80;37.00;;;;;;5062018;28;20541;-46
2023/01/30 00:31:17;;;;;;;0.60;0.60;;;17.80;37.10;;;;;;5044578;28;20128;-47
2023/01/30 00:33:44;;;;;;;0.70;0.57;;;17.80;37.10;;;;;;5044869;28;20045;-47
2023/01/30 00:36:13;;;;;;;0.65;0.65;;;17.80;37.10;;;;;;5044149;28;20051;-48
2023/01/30 00:38:42;;;;;;;1.58;0.30;;;17.70;37.10;;;;;;5044818;28;20124;-48
2023/01/30 00:41:12;;;;;;;2.78;1.30;;;17.80;37.20;;;;;;5048093;28;20813;-46
2023/01/30 00:49:15;;;;;;;1.17;0.65;;;17.70;37.30;;;;;;5080832;28;20148;-47
2023/01/30 00:51:42;;;;;;;1.15;0.68;;;17.70;37.30;;;;;;5065688;28;20040;-50
2023/01/30 00:54:15;;;;;;;2.45;1.52;;;17.70;37.30;;;;;;5064491;28;20048;-49
2023/01/30 00:56:44;;;;;;;1.27;0.40;;;17.70;37.40;;;;;;5064343;28;20052;-51
2023/01/30 00:59:13;;;;;;;2.45;0.55;;;17.70;37.40;;;;;;5065675;28;20056;-49
2023/01/30 01:01:40;;;;;;;1.00;0.60;;;17.70;37.40;;;;;;5065780;28;20429;-49
2023/01/30 01:04:09;;;;;;;0.70;0.40;;;17.70;37.50;;;;;;5065641;28;20554;-48
2023/01/30 01:06:36;;;;;;;0.63;0.55;;;17.70;38.10;;;;;;5065540;28;20056;-48
2023/01/30 01:09:05;;;;;;;0.57;0.57;;;17.70;37.50;;;;;;5064414;28;20050;-47
2023/01/30 01:11:33;;;;;;;1.75;0.60;;;17.70;37.50;;;;;;5063763;28;20059;-48
2023/01/30 01:14:05;;;;;;;1.27;0.38;;;17.70;37.60;;;;;;5065419;28;20127;-49
2023/01/30 01:16:35;;;;;;;1.65;1.55;;;17.70;37.60;;;;;;5064324;28;20130;-48
2023/01/30 01:19:03;;;;;;;1.52;0.25;;;17.70;37.60;;;;;;5065669;28;20139;-49
2023/01/30 01:21:30;;;;;;;0.45;0.40;;;17.70;37.60;;;;;;5062778;28;20075;-47
2023/01/30 01:23:59;;;;;;;1.00;0.65;;;17.70;37.70;;;;;;5065495;28;20396;-48
2023/01/30 01:26:27;;;;;;;0.98;0.30;;;17.70;37.70;;;;;;5063782;28;20045;-50
2023/01/30 01:28:56;;;;;;;1.63;0.68;;;17.70;37.70;;;;;;5060344;28;20091;-49
2023/01/30 01:31:24;;;;;;;2.53;0.80;;;17.70;37.70;;;;;;5052210;28;20044;-50
2023/01/30 01:33:56;;;;;;;0.40;0.40;;;17.60;37.60;;;;;;5063678;28;20463;-48
2023/01/30 01:36:26;;;;;;;2.63;0.52;;;17.60;37.70;;;;;;5065403;28;20036;-48
2023/01/30 01:38:54;;;;;;;1.10;0.73;;;17.60;37.70;;;;;;5064528;28;20140;-47
2023/01/30 01:41:20;;;;;;;0.93;0.60;;;17.60;37.70;;;;;;5064048;28;20068;-50
2023/01/30 01:44:06;;;;;;;0.70;0.60;;;17.60;37.70;;;;;;5048611;28;20535;-50
2023/01/30 01:46:38;;;;;;;1.60;0.43;;;17.70;37.70;;;;;;5044106;28;20037;-47
2023/01/30 01:49:13;;;;;;;0.47;0.25;;;17.60;37.80;;;;;;5045239;28;20049;-51
2023/01/30 01:51:47;;;;;;;1.17;1.05;;;17.60;38.40;;;;;;5052043;28;20523;-47
2023/01/30 01:54:20;;;;;;;1.38;0.50;;;17.60;37.80;;;;;;5065065;28;20079;-49
2023/01/30 01:56:50;;;;;;;3.92;0.52;;;17.60;37.80;;;;;;5063701;28;20444;-48
2023/01/30 01:59:24;;;;;;;1.00;0.43;;;17.60;37.80;;;;;;5065362;28;20048;-51
2023/01/30 02:01:55;;;;;;;1.73;1.20;;;17.60;37.90;;;;;;5080309;28;20040;-51
2023/01/30 02:07:05;;;;;;;1.10;0.88;;;17.60;37.90;;;;;;5062430;28;20842;-49
2023/01/30 02:09:34;;;;;;;1.48;0.57;;;17.60;38.00;;;;;;5080451;28;20517;-49
2023/01/30 02:12:06;;;;;;;1.98;0.77;;;17.60;38.00;;;;;;5065183;28;20079;-48
2023/01/30 02:14:36;;;;;;;0.77;0.45;;;17.60;38.00;;;;;;5081066;28;20059;-50
2023/01/30 02:17:04;;;;;;;0.98;0.47;;;17.50;38.00;;;;;;5062764;28;20082;-53
2023/01/30 02:19:40;;;;;;;1.25;0.60;;;17.60;38.00;;;;;;5060439;28;20086;-52
2023/01/30 02:22:33;;;;;;;0.60;0.60;;;17.60;38.00;;;;;;5064851;28;20413;-51
2023/01/30 02:25:22;;;;;;;0.60;0.52;;;17.60;38.00;;;;;;5047407;28;20049;-47
2023/01/30 02:28:25;;;;;;;1.83;0.80;;;17.60;38.00;;;;;;5080499;28;20056;-48
2023/01/30 02:31:30;;;;;;;0.88;0.50;;;17.50;38.00;;;;;;5080109;28;20071;-48
2023/01/30 02:34:11;;;;;;;0.60;0.55;;;17.50;38.00;;;;;;5067860;28;20588;-46
2023/01/30 02:36:51;;;;;;;1.40;0.57;;;17.50;38.10;;;;;;5067531;28;20075;-53
2023/01/30 02:39:31;;;;;;;0.80;0.80;;;17.50;38.10;;;;;;5084463;28;20059;-47
2023/01/30 02:42:04;;;;;;;0.85;0.40;;;17.50;38.10;;;;;;5067296;28;20052;-51
2023/01/30 02:44:43;;;;;;;1.42;0.90;;;17.50;38.10;;;;;;5050771;28;20059;-49
2023/01/30 02:47:17;;;;;;;1.13;0.98;;;17.50;38.20;;;;;;5068829;28;20139;-47
2023/01/30 02:49:57;;;;;;;1.38;0.63;;;17.50;38.20;;;;;;5068796;28;20147;-46
2023/01/30 02:52:27;;;;;;;1.20;1.10;;;17.50;38.20;;;;;;5066816;28;20594;-50
2023/01/30 02:54:56;;;;;;;0.40;0.30;;;17.50;38.20;;;;;;5067400;28;20067;-47
2023/01/30 02:57:26;;;;;;;1.50;0.40;;;17.50;38.20;;;;;;5067469;28;20056;-48
2023/01/30 03:00:04;;;;;;;3.60;0.60;;;17.50;38.20;;;;;;5066400;28;20049;-48
2023/01/30 03:03:18;;;;;;;1.35;0.50;;;17.50;38.20;;;;;;5083540;28;20051;-48
2023/01/30 03:06:22;;;;;;;2.47;0.88;;;17.50;38.20;;;;;;5067954;28;20040;-51
2023/01/30 03:09:06;;;;;;;0.50;0.40;;;17.50;38.20;;;;;;5077348;28;20045;-50
2023/01/30 03:11:41;;;;;;;1.00;0.82;;;17.50;38.30;;;;;;5046104;28;20044;-47
2023/01/30 03:14:17;;;;;;;2.22;0.43;;;17.40;38.20;;;;;;5045911;28;20051;-50
2023/01/30 03:16:46;;;;;;;0.30;0.30;;;17.50;38.30;;;;;;5045903;28;20045;-51
2023/01/30 03:19:14;;;;;;;0.32;0.30;;;17.40;38.30;;;;;;5047374;28;20136;-47
2023/01/30 03:21:43;;;;;;;2.15;0.85;;;17.50;38.40;;;;;;5036470;28;20044;-48
2023/01/30 03:24:12;;;;;;;1.27;0.57;;;17.40;38.30;;;;;;5065695;28;20631;-48
2023/01/30 03:26:44;;;;;;;1.67;0.65;;;17.40;38.30;;;;;;5065827;28;20446;-50
2023/01/30 03:29:11;;;;;;;1.27;0.43;;;17.50;38.40;;;;;;5075506;28;20115;-50
2023/01/30 03:31:40;;;;;;;1.27;0.38;;;17.40;38.40;;;;;;5045618;28;20114;-47
2023/01/30 03:34:07;;;;;;;0.73;0.20;;;17.40;38.40;;;;;;5047209;28;20056;-49
2023/01/30 03:36:35;;;;;;;0.70;0.30;;;17.40;38.40;;;;;;5048192;28;20540;-48
2023/01/30 03:39:05;;;;;;;0.50;0.50;;;17.40;38.40;;;;;;5046752;28;20044;-49
2023/01/30 03:41:32;;;;;;;1.67;0.65;;;17.50;38.50;;;;;;5050398;28;20051;-49
2023/01/30 03:44:01;;;;;;;1.02;0.65;;;17.40;38.40;;;;;;5047434;28;20052;-49
2023/01/30 03:46:29;;;;;;;1.67;1.13;;;17.40;38.40;;;;;;5065516;28;20080;-49
2023/01/30 03:48:56;;;;;;;2.47;0.98;;;17.40;38.40;;;;;;5065152;28;20106;-51
2023/01/30 03:51:23;;;;;;;1.13;0.30;;;17.50;38.50;;;;;;5066617;28;20041;-47
2023/01/30 03:53:51;;;;;;;1.10;0.75;;;17.50;38.50;;;;;;5066722;28;20114;-51
2023/01/30 03:56:19;;;;;;;1.08;0.50;;;17.50;38.50;;;;;;5066301;28;20065;-47
2023/01/30 03:58:46;;;;;;;1.85;0.40;;;17.50;38.50;;;;;;5064777;28;20491;-51
2023/01/30 04:01:24;;;;;;;1.88;0.68;;;17.40;38.50;;;;;;5065318;28;20185;-49
2023/01/30 04:03:52;;;;;;;0.75;0.75;;;17.40;38.50;;;;;;5065353;28;20397;-49
2023/01/30 04:06:20;;;;;;;1.33;1.08;;;17.40;38.50;;;;;;5065091;28;20051;-46
2023/01/30 04:08:47;;;;;;;1.05;0.40;;;17.50;38.50;;;;;;5065307;28;20090;-48
2023/01/30 04:11:28;;;;;;;0.90;0.30;;;17.50;38.50;;;;;;5065600;28;20421;-49
2023/01/30 04:13:55;;;;;;;1.08;0.35;;;17.50;38.50;;;;;;5065383;28;20045;-46
2023/01/30 04:16:25;;;;;;;0.35;0.30;;;17.40;38.50;;;;;;5052541;28;20048;-49
2023/01/30 04:19:10;;;;;;;1.40;0.38;;;17.50;38.60;;;;;;5047005;28;20044;-47
2023/01/30 04:21:37;;;;;;;1.20;0.68;;;17.40;38.50;;;;;;5053546;28;20091;-47
2023/01/30 04:24:05;;;;;;;0.57;0.55;;;17.40;38.60;;;;;;5063789;28;20068;-49
2023/01/30 04:26:34;;;;;;;1.00;0.85;;;17.50;38.60;;;;;;5047771;28;20053;-47
2023/01/30 04:29:02;;;;;;;1.23;0.57;;;17.50;38.60;;;;;;5051084;28;20028;-49
2023/01/30 04:31:30;;;;;;;1.30;0.52;;;17.50;38.70;;;;;;5065473;28;20040;-50
2023/01/30 04:34:02;;;;;;;0.88;0.40;;;17.50;38.70;;;;;;5065474;28;20048;-47
2023/01/30 04:36:29;;;;;;;0.50;0.47;;;17.50;38.70;;;;;;5065433;28;20123;-48
2023/01/30 04:38:57;;;;;;;0.80;0.80;;;17.50;38.70;;;;;;5065307;28;20036;-49
2023/01/30 04:41:25;;;;;;;1.05;0.60;;;17.50;38.70;;;;;;5064656;28;20048;-49
2023/01/30 04:43:58;;;;;;;1.15;0.57;;;17.50;38.70;;;;;;5065205;28;20052;-50
2023/01/30 04:46:32;;;;;;;;;;;17.50;38.70;;;;;;5065847;28;20421;-50
2023/01/30 04:48:59;;;;;;;;;;;17.40;38.60;;;;;;5066657;28;19920;-49
2023/01/30 04:51:26;;;;;;;1.67;0.70;;;17.40;38.80;;;;;;5064634;28;20412;-49
2023/01/30 04:53:54;;;;;;;0.40;0.30;;;17.40;39.50;;;;;;5064925;28;20139;-47
2023/01/30 04:56:21;;;;;;;1.02;0.88;;;17.40;38.90;;;;;;5065428;28;20048;-47
2023/01/30 04:58:49;;;;;;;1.02;0.63;;;17.40;38.90;;;;;;5064315;28;20043;-49
2023/01/30 05:01:24;;;;;;;0.52;0.20;;;17.40;38.90;;;;;;5064412;28;20075;-48
2023/01/30 05:03:52;;;;;;;0.32;0.20;;;17.40;38.90;;;;;;5064739;28;20055;-46
2023/01/30 05:06:20;;;;;;;0.95;0.30;;;17.50;38.90;;;;;;5047346;28;20045;-47
2023/01/30 05:08:48;;;;;;;1.58;0.52;;;17.50;38.90;;;;;;5065808;28;20072;-49
2023/01/30 05:11:15;;;;;;;0.93;0.93;;;17.50;39.00;;;;;;5065132;28;20063;-49
2023/01/30 05:13:43;;;;;;;0.50;0.40;;;17.50;38.90;;;;;;5065145;28;20555;-47
2023/01/30 05:16:10;;;;;;;1.90;0.40;;;17.50;38.90;;;;;;5064928;28;20082;-50
2023/01/30 05:18:39;;;;;;;0.50;0.50;;;17.50;38.90;;;;;;5065007;28;20517;-48
2023/01/30 05:21:08;;;;;;;0.75;0.60;;;17.50;38.90;;;;;;5064697;28;20050;-54
2023/01/30 05:23:35;;;;;;;0.65;0.65;;;17.50;38.90;;;;;;5063601;28;20075;-52
2023/01/30 05:26:03;;;;;;;0.40;0.38;;;17.50;38.90;;;;;;5064488;28;20048;-49
2023/01/30 05:28:30;;;;;;;2.20;0.45;;;17.50;39.00;;;;;;5063704;28;20414;-51
2023/01/30 05:31:01;;;;;;;0.98;0.40;;;17.60;39.60;;;;;;5044804;28;20424;-48
2023/01/30 05:33:28;;;;;;;2.25;0.65;;;17.60;39.00;;;;;;5044831;28;20128;-49
2023/01/30 05:35:57;;;;;;;1.42;0.40;;;17.60;39.00;;;;;;5054831;28;20049;-52
2023/01/30 05:38:24;;;;;;;1.13;0.35;;;17.60;39.10;;;;;;5065027;28;20049;-48
2023/01/30 05:40:58;;;;;;;0.70;0.55;;;17.60;39.00;;;;;;5064199;28;20050;-51
2023/01/30 05:43:26;;;;;;;0.75;0.43;;;17.60;39.10;;;;;;5063090;28;20072;-48
2023/01/30 05:45:54;;;;;;;1.45;0.63;;;17.60;39.10;;;;;;5045951;28;20571;-49
2023/01/30 05:48:21;;;;;;;0.45;0.30;;;17.60;39.10;;;;;;5044559;28;20040;-49
2023/01/30 05:50:50;;;;;;;1.13;0.30;;;17.60;39.10;;;;;;5044741;28;20072;-51
2023/01/30 05:53:19;;;;;;;0.80;0.80;;;17.60;39.10;;;;;;5064590;28;20055;-49
2023/01/30 05:55:46;;;;;;;0.45;0.30;;;17.60;39.10;;;;;;5064441;28;20138;-48
2023/01/30 05:58:14;;;;;;;0.90;0.75;;;17.60;39.10;;;;;;5063855;28;20040;-46
2023/01/30 06:00:42;;;;;;;1.13;0.32;;;17.60;39.10;;;;;;5064478;28;20458;-47
2023/01/30 06:03:09;;;;;;;0.63;0.63;;;17.60;39.10;;;;;;5064582;28;20663;-49
2023/01/30 06:05:38;;;;;;;1.25;0.55;;;17.60;39.20;;;;;;5064773;28;20064;-49
2023/01/30 06:08:05;;;;;;;0.63;0.30;;;17.70;39.20;;;;;;5070637;28;20049;-52
2023/01/30 06:10:33;;;;;;;0.95;0.25;;;17.60;39.20;;;;;;5071401;28;20053;-51
2023/01/30 06:13:00;;;;;;;0.40;0.40;;;17.70;39.20;;;;;;5069673;28;20043;-48
2023/01/30 06:15:27;;;;;;;0.45;0.38;;;17.60;39.20;;;;;;5071061;28;20420;-49
2023/01/30 06:17:55;;;;;;;1.58;0.50;;;17.60;39.20;;;;;;5069460;28;20059;-48
2023/01/30 06:20:22;;;;;;;0.50;0.30;;;17.70;39.30;;;;;;5051076;28;20040;-46
2023/01/30 06:22:49;;;;;;;0.60;0.40;;;17.70;39.30;;;;;;5067208;28;20503;-48
2023/01/30 06:25:16;;;;;;;0.85;0.85;;;17.70;39.40;;;;;;5070869;28;20068;-50
2023/01/30 06:27:45;;;;;;;0.55;0.38;;;17.70;39.30;;;;;;5069526;28;20044;-48
2023/01/30 06:30:13;;;;;;;0.30;0.20;;;17.70;39.40;;;;;;5055454;28;20045;-49
2023/01/30 06:32:41;;;;;;;0.30;0.30;;;17.70;39.40;;;;;;5053686;28;20461;-46
2023/01/30 06:35:09;;;;;;;0.90;0.43;;;17.70;39.40;;;;;;5051143;28;20055;-48
2023/01/30 06:37:36;;;;;;;0.82;0.30;;;17.70;39.40;;;;;;5050777;28;20398;-50
2023/01/30 06:40:04;;;;;;;1.15;0.40;;;17.70;40.00;;;;;;5051045;28;20128;-47
2023/01/30 06:42:31;;;;;;;0.40;0.38;;;17.70;39.40;;;;;;5063834;28;20049;-51
2023/01/30 06:44:59;;;;;;;0.63;0.20;;;17.70;39.40;;;;;;5071137;28;20138;-47
2023/01/30 06:47:26;;;;;;;1.42;0.30;;;17.70;39.50;;;;;;5071224;28;20643;-48
2023/01/30 06:49:54;;;;;;;0.95;0.63;;;17.70;39.50;;;;;;5071266;28;20505;-47
2023/01/30 06:52:21;;;;;;;1.17;0.52;;;17.70;39.50;;;;;;5070914;28;20040;-48
2023/01/30 06:54:49;;;;;;;0.30;0.20;;;17.70;39.50;;;;;;5070864;28;20076;-46
2023/01/30 06:57:16;;;;;;;0.88;0.28;;;17.80;39.60;;;;;;5070882;28;20048;-48
2023/01/30 06:59:43;;;;;;;1.55;0.30;;;17.70;39.50;;;;;;5071187;28;20068;-47
2023/01/30 07:02:13;;;;;;;0.93;0.20;;;17.80;39.60;;;;;;5070709;28;20135;-47
2023/01/30 07:04:41;;;;;;;0.32;0.28;;;17.70;39.60;;;;;;5070908;28;20048;-49
2023/01/30 07:07:08;;;;;;;0.70;0.20;;;17.80;39.60;;;;;;5070432;28;20117;-47
2023/01/30 07:09:35;;;;;;;0.50;0.32;;;17.80;39.60;;;;;;5069479;28;20051;-48
2023/01/30 07:12:02;;;;;;;0.80;0.30;;;17.80;39.70;;;;;;5070765;28;20036;-49
2023/01/30 07:14:29;;;;;;;0.40;0.40;;;17.80;39.70;;;;;;5070681;28;20041;-47
2023/01/30 07:16:56;;;;;;;1.45;0.30;;;17.80;39.70;;;;;;5070792;28;20542;-46
2023/01/30 07:19:24;;;;;;;0.30;0.28;;;17.80;39.70;;;;;;5067530;28;20123;-48
2023/01/30 07:21:51;;;;;;;0.85;0.20;;;17.80;39.70;;;;;;5066941;28;20047;-48
2023/01/30 07:24:18;;;;;;;0.20;0.10;;;17.80;39.70;;;;;;5067330;28;20516;-51
2023/01/30 07:26:48;;;;;;;0.43;0.20;;;17.80;39.70;;;;;;5067537;28;20036;-51
2023/01/30 07:29:15;;;;;;;0.20;0.15;;;17.80;39.80;;;;;;5059969;28;20045;-51
2023/01/30 07:31:42;;;;;;;0.20;0.10;;;17.80;39.70;;;;;;5047345;28;20056;-47
2023/01/30 07:34:09;;;;;;;0.43;0.10;;;17.80;39.80;;;;;;5047181;28;20048;-50
2023/01/30 07:36:37;;;;;;;0.30;0.30;;;17.90;39.80;;;;;;5046938;28;20045;-46
2023/01/30 07:39:05;;;;;;;0.20;0.10;;;17.90;39.90;;;;;;5047189;28;20072;-46
2023/01/30 07:41:32;;;;;;;1.38;0.32;;;17.90;39.80;;;;;;5054434;28;20159;-46
2023/01/30 07:43:59;;;;;;;0.85;0.30;;;17.90;39.80;;;;;;5067036;28;20083;-48
2023/01/30 07:46:33;;;;;;;0.85;0.40;;;17.90;39.80;;;;;;5066858;28;20493;-48
2023/01/30 07:49:00;;;;;;;1.17;0.28;;;17.90;39.90;;;;;;5067132;28;20051;-49
2023/01/30 07:51:27;;;;;;;0.20;0.20;;;17.90;39.90;;;;;;5066570;28;20135;-47
2023/01/30 07:53:57;;;;;;;0.70;0.20;;;17.90;39.90;;;;;;5067040;28;20040;-49
2023/01/30 07:56:24;;;;;;;0.50;0.30;;;17.90;39.90;;;;;;5066705;28;20371;-46
2023/01/30 07:58:51;;;;;;;1.85;0.57;;;17.90;39.90;;;;;;5066710;28;20053;-47
2023/01/30 08:01:18;;;;;;;0.20;0.13;;;17.90;40.00;;;;;;5066599;28;20060;-47
2023/01/30 08:03:45;;;;;;;0.52;0.52;;;17.90;39.90;;;;;;5066751;28;20043;-49
2023/01/30 08:06:13;;;;;;;0.55;0.20;;;17.90;40.00;;;;;;5066975;28;20044;-50
2023/01/30 08:08:40;;;;;;;0.50;0.50;;;17.90;40.00;;;;;;5066705;28;20359;-49
2023/01/30 08:11:09;;;;;;;0.38;0.25;;;18.00;40.00;;;;;;5066656;28;20128;-49
2023/01/30 08:13:37;;;;;;;1.55;0.20;;;18.00;40.10;;;;;;5066583;28;20044;-47
2023/01/30 08:16:06;;;;;;;0.30;0.20;;;18.00;40.00;;;;;;5066530;28;20044;-49
2023/01/30 08:18:35;;;;;;;0.35;0.20;;;18.00;40.10;;;;;;5064527;28;20044;-49
2023/01/30 08:21:05;;;;;;;0.30;0.13;;;18.00;40.10;;;;;;5065807;28;20055;-48
2023/01/30 08:23:34;;;;;;;0.35;0.30;;;18.00;40.10;;;;;;5049853;28;20060;-51
2023/01/30 08:26:02;;;;;;;0.70;0.40;;;18.00;40.10;;;;;;5046593;28;20048;-50
2023/01/30 08:28:31;;;;;;;0.52;0.52;;;18.00;40.10;;;;;;5046167;28;20140;-47
2023/01/30 08:30:58;;;;;;;1.25;0.30;;;18.00;40.10;;;;;;5045772;28;20076;-47
2023/01/30 08:33:25;;;;;;;0.65;0.57;;;18.00;40.10;;;;;;5045904;28;20044;-47
2023/01/30 08:35:52;;;;;;;0.90;0.20;;;18.00;40.10;;;;;;5046029;28;20041;-50
2023/01/30 08:38:19;;;;;;;0.20;0.20;;;18.00;40.10;;;;;;5046077;28;20509;-51
2023/01/30 08:40:47;;;;;;;0.85;0.35;;;18.00;40.10;;;;;;5053318;28;20526;-48
2023/01/30 08:43:15;;;;;;;1.67;0.30;;;18.10;40.20;;;;;;5065782;28;20044;-50
2023/01/30 08:45:43;;;;;;;0.50;0.40;;;18.10;40.20;;;;;;5065617;28;20094;-46
2023/01/30 08:48:10;;;;;;;1.88;0.28;;;18.10;40.20;;;;;;5065612;28;20079;-48
2023/01/30 08:50:37;;;;;;;1.20;0.35;;;18.10;40.20;;;;;;5065508;28;20509;-47
2023/01/30 08:53:05;;;;;;;0.77;0.77;;;18.10;40.20;;;;;;5065821;28;20090;-47
2023/01/30 08:55:33;;;;;;;0.93;0.30;;;18.10;40.20;;;;;;5065840;28;20055;-47
2023/01/30 08:58:00;;;;;;;1.65;0.20;;;18.10;40.20;;;;;;5065502;28;20087;-50
2023/01/30 09:00:28;;;;;;;0.30;0.20;;;18.10;40.20;;;;;;5065597;28;20048;-53
2023/01/30 09:02:57;;;;;;;1.27;0.30;;;18.10;40.20;;;;;;5065297;28;20052;-47
2023/01/30 09:05:24;;;;;;;0.32;0.20;;;18.10;40.40;;;;;;5065493;28;20041;-47
2023/01/30 09:07:52;;;;;;;0.40;0.30;;;18.10;40.20;;;;;;5065667;28;20175;-49
2023/01/30 09:10:21;;;;;;;1.33;0.30;;;18.10;40.20;;;;;;5065573;28;20143;-48
2023/01/30 09:12:48;;;;;;;0.50;0.20;;;18.10;40.20;;;;;;5065570;28;20052;-49
2023/01/30 09:15:15;;;;;;;0.50;0.30;;;18.10;40.20;;;;;;5065377;28;20480;-49
2023/01/30 09:17:43;;;;;;;0.40;0.40;;;18.10;40.20;;;;;;5065266;28;21009;-48
2023/01/30 09:20:13;;;;;;;0.20;0.20;;;18.10;40.20;;;;;;5064243;28;20057;-48
2023/01/30 09:22:40;;;;;;;0.20;0.20;;;18.10;40.20;;;;;;5064997;28;20591;-50
2023/01/30 09:25:09;;;;;;;0.85;0.20;;;18.10;40.30;;;;;;5065506;28;20102;-46
2023/01/30 09:27:36;;;;;;;1.00;0.22;;;18.10;40.20;;;;;;5065183;28;20074;-50
2023/01/30 09:30:04;;;;;;;0.10;0.10;;;18.20;40.30;;;;;;5051175;28;20049;-49
2023/01/30 09:32:33;;;;;;;0.30;0.30;;;18.10;40.80;;;;;;5044811;28;20049;-49
2023/01/30 09:35:00;;;;;;;0.65;0.20;;;18.20;40.30;;;;;;5045341;28;20398;-48
2023/01/30 09:37:29;;;;;;;0.25;0.10;;;18.20;40.30;;;;;;5045251;28;20114;-48
2023/01/30 09:39:57;;;;;;;0.43;0.20;;;18.20;40.30;;;;;;5063140;28;20040;-46
2023/01/30 09:43:00;;;;;;;1.10;0.40;;;18.20;40.50;;;;;;5064237;28;20530;-46
2023/01/30 09:45:45;;;;;;;0.47;0.15;;;18.20;40.30;;;;;;5059790;28;20052;-48
2023/01/30 09:48:18;;;;;;;0.60;0.20;;;18.20;40.40;;;;;;5060616;28;20041;-48
2023/01/30 09:51:11;;;;;;;0.65;0.20;;;18.10;40.40;;;;;;5045739;28;20103;-48
2023/01/30 09:54:02;;;;;;;0.17;0.17;;;18.20;40.40;;;;;;5045610;28;20095;-47
2023/01/30 09:56:29;;;;;;;0.10;0.10;;;18.20;40.40;;;;;;5045111;28;20469;-51
2023/01/30 09:58:59;;;;;;;0.60;0.22;;;18.10;40.40;;;;;;5045180;28;20128;-46
2023/01/30 10:01:33;;;;;;;0.30;0.10;;;18.10;40.40;;;;;;5043005;28;20136;-49
2023/01/30 10:04:11;;;;;;;0.50;0.45;;;18.10;40.40;;;;;;5045799;28;20624;-47
2023/01/30 10:06:49;;;;;;;0.45;0.20;;;18.20;40.50;;;;;;5045575;28;20036;-50
2023/01/30 10:09:25;;;;;;;0.52;0.10;;;18.20;40.50;;;;;;5045430;28;20110;-51
2023/01/30 10:12:04;;;;;;;0.28;0.10;;;18.20;40.50;;;;;;5045456;28;20052;-49
2023/01/30 10:14:46;;;;;;;0.82;0.20;;;18.20;40.50;;;;;;5045142;28;20047;-50
2023/01/30 10:17:34;;;;;;;0.30;0.10;;;18.20;40.50;;;;;;5045527;28;20045;-47
2023/01/30 10:20:31;;;;;;;0.40;0.40;;;18.20;40.50;;;;;;5044476;28;20122;-47
2023/01/30 10:23:10;;;;;;;2.40;0.20;;;18.20;40.60;;;;;;5061264;28;20052;-49
2023/01/30 10:25:44;;;;;;;0.32;0.22;;;18.20;40.70;;;;;;5064735;28;20132;-49
2023/01/30 10:28:20;;;;;;;0.75;0.20;;;18.20;40.70;;;;;;5064437;28;20047;-48
2023/01/30 10:30:48;;;;;;;;;;;18.20;40.70;;;;;;5047510;28;20052;-47
2023/01/30 10:33:22;;;;;;;3.03;0.30;;;18.10;40.60;;;;;;5044790;28;19925;-48
2023/01/30 10:35:58;;;;;;;0.30;0.10;;;18.20;40.80;;;;;;5044812;28;20045;-47
2023/01/30 10:38:33;;;;;;;0.55;0.20;;;18.20;40.80;;;;;;5045039;28;20612;-48
2023/01/30 10:41:07;;;;;;;0.52;0.10;;;18.20;40.80;;;;;;5043941;28;20802;-47
2023/01/30 10:43:39;;;;;;;0.43;0.38;;;18.20;40.80;;;;;;5061328;28;20049;-46
2023/01/30 10:46:25;;;;;;;0.73;0.20;;;18.30;40.80;;;;;;5064858;28;20044;-49
2023/01/30 10:48:56;;;;;;;1.33;1.23;;;18.30;40.70;;;;;;5063269;28;20588;-47
2023/01/30 10:51:34;;;;;;;0.20;0.20;;;18.30;40.80;;;;;;5064385;28;20290;-47
2023/01/30 10:54:08;;;;;;;0.15;0.10;;;18.30;40.80;;;;;;5067976;28;20086;-47
2023/01/30 10:56:44;;;;;;;0.90;0.10;;;18.30;40.80;;;;;;5068350;28;20048;-47
2023/01/30 10:59:24;;;;;;;0.20;0.15;;;18.30;41.40;;;;;;5067834;28;20044;-46
2023/01/30 11:02:12;;;;;;;0.47;0.10;;;18.30;40.90;;;;;;5067988;28;20076;-50
2023/01/30 11:04:44;;;;;;;0.30;0.30;;;18.40;40.80;;;;;;5067966;28;20045;-47
2023/01/30 11:07:13;;;;;;;0.98;0.10;;;18.30;40.80;;;;;;5067908;28;20044;-51
2023/01/30 11:09:43;;;;;;;0.50;0.10;;;18.40;40.80;;;;;;5066525;28;20055;-46
2023/01/30 11:12:13;;;;;;;0.10;0.10;;;18.40;40.80;;;;;;5066376;28;20044;-48
2023/01/30 11:15:08;;;;;;;0.43;0.22;;;18.40;40.80;;;;;;5068431;28;20655;-46
2023/01/30 11:17:37;;;;;;;0.68;0.40;;;18.40;40.70;;;;;;4950051;28;20422;-47
2023/01/30 11:20:13;;;;;;;0.15;0.08;;;18.40;40.80;;;;;;4966306;28;20043;-47
2023/01/30 11:22:47;;;;;;;0.10;0.10;;;18.40;40.70;;;;;;4981017;28;20058;-47
2023/01/30 11:25:16;;;;;;;0.20;0.20;;;18.50;40.80;;;;;;4985115;28;20128;-46
2023/01/30 11:27:52;;;;;;;0.30;0.10;;;18.40;40.70;;;;;;4984049;28;20064;-47
2023/01/30 11:30:21;;;;;;;0.10;0.10;;;18.50;40.70;;;;;;4967676;28;20471;-47
2023/01/30 11:32:49;;;;;;;0.10;0.10;;;18.50;40.70;;;;;;4948357;28;20133;-47
2023/01/30 11:35:28;;;;;;;0.10;0.10;;;18.50;40.70;;;;;;4964303;28;20047;-48
2023/01/30 11:38:12;;;;;;;0.20;0.10;;;18.50;40.60;;;;;;4964322;28;20051;-48
2023/01/30 11:40:40;;;;;;;0.17;0.17;;;18.50;40.60;;;;;;4964399;28;20047;-47
2023/01/30 11:43:14;;;;;;;0.50;0.20;;;18.50;40.60;;;;;;4982616;28;20046;-47
2023/01/30 11:45:43;;;;;;;0.10;0.10;;;18.50;40.60;;;;;;4985139;28;20046;-48
2023/01/30 11:48:18;;;;;;;0.20;0.20;;;18.50;40.60;;;;;;4984980;28;20096;-46
2023/01/30 11:50:49;;;;;;;0.10;0.10;;;18.50;40.70;;;;;;4985163;28;20046;-51
2023/01/30 11:53:25;;;;;;;0.20;0.20;;;18.50;40.60;;;;;;5001320;28;20158;-46
2023/01/30 11:55:57;;;;;;;0.10;0.00;;;18.50;40.70;;;;;;5048971;28;20045;-47
2023/01/30 11:58:30;;;;;;;0.10;0.03;;;18.60;40.70;;;;;;5047016;28;20132;-50
2023/01/30 12:00:59;;;;;;;0.20;0.10;;;18.50;40.70;;;;;;5047045;28;20040;-47
2023/01/30 12:03:28;;;;;;;0.52;0.10;;;18.60;40.70;;;;;;5046745;28;20052;-49
2023/01/30 12:05:57;;;;;;;2.47;0.45;;;18.60;40.80;;;;;;5064374;28;20516;-51
2023/01/30 12:08:26;;;;;;;0.22;0.10;;;18.60;40.80;;;;;;5066791;28;20040;-50
2023/01/30 12:10:57;;;;;;;1.75;0.10;;;18.60;40.80;;;;;;5066340;28;20083;-50
2023/01/30 12:13:32;;;;;;;0.10;0.00;;;18.60;40.80;;;;;;5066843;28;20040;-51
2023/01/30 12:16:16;;;;;;;1.67;0.10;;;18.60;40.80;;;;;;5066658;28;20041;-49
2023/01/30 12:18:51;;;;;;;0.30;0.10;;;18.60;40.80;;;;;;5066743;28;20055;-49
2023/01/30 12:21:35;;;;;;;0.20;0.10;;;18.60;40.80;;;;;;5066399;28;20119;-47
2023/01/30 12:24:20;;;;;;;0.20;0.10;;;18.60;40.80;;;;;;5065356;28;20048;-50
2023/01/30 12:27:03;;;;;;;0.20;0.13;;;18.60;40.90;;;;;;5066278;28;20051;-48
2023/01/30 12:29:36;;;;;;;2.17;1.55;;;18.60;40.90;;;;;;5056844;28;20792;-50
2023/01/30 12:32:08;;;;;;;0.75;0.10;;;18.60;41.00;;;;;;5046764;28;20131;-47
2023/01/30 12:34:35;;;;;;;1.38;0.10;;;18.60;41.00;;;;;;5046659;28;20361;-49
2023/01/30 12:37:20;;;;;;;0.95;0.10;;;18.60;41.00;;;;;;5048985;28;20056;-51
2023/01/30 12:39:57;;;;;;;0.20;0.00;;;18.60;41.00;;;;;;5046354;28;20060;-47
2023/01/30 12:42:50;;;;;;;0.10;0.10;;;18.60;41.00;;;;;;5061258;28;20417;-48
2023/01/30 12:45:23;;;;;;;0.10;0.10;;;18.60;41.00;;;;;;5049576;28;20053;-50
2023/01/30 12:48:10;;;;;;;0.55;0.10;;;18.60;41.10;;;;;;5066310;28;20383;-46
2023/01/30 12:50:53;;;;;;;0.20;0.10;;;18.60;41.10;;;;;;5066334;28;20131;-48
2023/01/30 12:53:32;;;;;;;0.80;0.10;;;18.60;41.20;;;;;;5057891;28;20545;-46
2023/01/30 12:56:25;;;;;;;0.17;0.10;;;18.60;41.20;;;;;;5065833;28;20048;-47
2023/01/30 12:59:00;;;;;;;0.13;0.10;;;18.60;41.10;;;;;;5065054;28;20488;-48
2023/01/30 13:01:37;;;;;;;1.27;0.38;;;18.60;41.30;;;;;;5065983;28;20125;-48
2023/01/30 13:04:14;;;;;;;2.38;0.80;;;18.60;41.30;;;;;;5066160;28;20119;-48
2023/01/30 13:06:55;;;;;;;0.60;0.43;;;18.60;41.30;;;;;;5065494;28;20217;-51
2023/01/30 13:09:47;;;;;;;0.52;0.10;;;18.60;41.20;;;;;;5065566;28;20144;-48
2023/01/30 13:12:19;;;;;;;0.55;0.10;;;18.70;41.80;;;;;;5065675;28;20078;-51
2023/01/30 13:14:53;;;;;;;1.08;0.10;;;18.70;41.30;;;;;;5065613;28;20144;-47
2023/01/30 13:17:50;;;;;;;0.68;0.10;;;18.60;41.20;;;;;;5065416;28;20044;-49
2023/01/30 13:20:31;;;;;;;0.30;0.10;;;18.70;41.30;;;;;;5064057;28;20244;-47